LOWW/VIE METAR and TAF weather

Enter ICAO airport designator
Station Type Date Time Source
LOWW METAR 2022/01/29 00:50 UTC NOAA

LOWW 290050Z 31014KT 9999 FEW038 SCT042 BKN048 04/M04 Q1030 NOSIG


Station Type Date Time Source
LOWW Decoded METAR 2022/01/29 00:50 UTC NOAA

Wien / Schwechat-Flughafen, Austria (LOWW) 48-07N 016-34E 190M
Jan 28, 2022 - 07:50 PM EST / 2022.01.29 0050 UTC
Wind: from the NW (310 degrees) at 16 MPH (14 KT):0
Visibility: greater than 7 mile(s):0
Sky conditions: mostly cloudy
Temperature: 39 F (4 C)
Dew Point: 24 F (-4 C)
Relative Humidity: 55%
Pressure (altimeter): 30.42 in. Hg (1030 hPa)
ob: LOWW 290050Z 31014KT 9999 FEW038 SCT042 BKN048 04/M04 Q1030 NOSIG
cycle: 1

Station Type Date Time Source
LOWW TAF 2022/01/28 21:24 UTC NOAA

TAF LOWW 282015Z 2821/3003 30018G30KT 9999 BKN050 TX08/3001Z TN02/2905Z
BECMG 2901/2904 28012KT
TEMPO 2905/2911 20006KT
TEMPO 2912/2919 -RA PROB30
TEMPO 2913/2918 RA
TEMPO 2920/3003 29017G27KT

Example: see airport list